Карточка аэропорта USTR

Внимание!
Информация на этой странице в стадии наполнения.
Если вы не увидели какой-то информации, или заметили неточность - пожалуйста сообщите нам!
Спасибо!
Команда RU-STAFF
Название аэропортаРощино
Название аэропорта (англ.)Roshschino
Превышение378 ft. (115.2 m.)
Координаты57°10.098', 65°19.002'
Высота перехода3000ft
Эшелон переходаQNH⩾1013hPa:FL040; QNH⩾977hPa:FL050; QNH⩽977hPa:FL060
Коды ответчика5101-5137
Зона ОрВДТюмень РПИ (USTV)
Данные METARUSTR 251143Z 18005MPS 9999 SCT036CB 19/17 Q0994 R21/290050 R12/290050 TEMPO VRB18MPS 1000 TSRAGR SQ VV004
Проноз погоды (TAF)USTR 251047Z 2512/2612 22006G12MPS 6000 FEW007 BKN016CB TEMPO 2512/2518 VRB18MPS 0500 +TSRAGR SQ VV003 TEMPO 2518/2603 4000 -SHRA BKN005 BKN016CB FM260600 24005G12MPS 9999 SCT020CB TEMPO 2606/2612 -SHRA BKN016CB
NOTAMshow/hide NOTAM
AWOS   TABLE

Информация о ВПП

ВПП Длина ВПП (м.) Покрытие Курс ВПП Частота ILS
033003Асфальтобетон34108.3
213003Асфальтобетон214110.7
122704Асфальтобетон121 
302704Асфальтобетон301 

Диспетчерские позиции

Позывной Наименование органа УВД Частота
USTR_GNDТюмень-Руление119.000
USTR_TWRТюмень-Старт118.200
USTR_R_APPТюмень-Круг126.100



Спутниковое изображение